Time;durP1;ratioP1;P1;durP2;ratioP2;P2;SDS_P1;SDS_P2;PMS_P1;PMS_P2;Temp;Humidity;BMP_temperature;BMP_pressure;BME280_temperature;BME280_humidity;BME280_pressure;Samples;Min_cycle;Max_cycle;Signal;HPM_P1;HPM_P2
2024/01/23 00:02:26;;;;;;;5.40;2.20;;;;;;;6.45;72.64;99200.34;4994732;28;103421;-75
2024/01/23 00:04:53;;;;;;;3.50;1.73;;;;;;;6.52;71.82;99205.94;5014330;28;104058;-75
2024/01/23 00:07:23;;;;;;;3.58;2.10;;;;;;;6.54;72.15;99214.53;5006633;28;103201;-74
2024/01/23 00:09:51;;;;;;;3.88;1.65;;;;;;;6.52;72.11;99211.19;4991858;28;102830;-75
2024/01/23 00:12:19;;;;;;;4.70;2.25;;;;;;;6.59;71.72;99217.59;5006043;28;104246;-75
2024/01/23 00:14:47;;;;;;;3.85;1.77;;;;;;;6.57;72.42;99219.53;4987728;28;104285;-75
2024/01/23 00:17:15;;;;;;;3.28;1.75;;;;;;;6.58;72.58;99218.59;5011713;28;103416;-75
2024/01/23 00:19:53;;;;;;;3.50;1.70;;;;;;;6.57;72.11;99219.53;4992993;28;102697;-74
2024/01/23 00:22:22;;;;;;;5.35;2.10;;;;;;;6.59;71.69;99222.84;4981069;28;102709;-75
2024/01/23 00:24:50;;;;;;;6.32;2.25;;;;;;;6.60;72.38;99208.75;4992647;28;104390;-75
2024/01/23 00:27:18;;;;;;;4.78;2.42;;;;;;;6.60;72.37;99203.47;4994437;28;104202;-75
2024/01/23 00:29:46;;;;;;;4.35;1.95;;;;;;;6.59;71.68;99212.34;4996176;28;102760;-75
2024/01/23 00:32:14;;;;;;;3.30;1.63;;;;;;;6.61;71.67;99213.88;5013055;28;103008;-75
2024/01/23 00:34:42;;;;;;;3.05;1.75;;;;;;;6.66;71.24;99202.16;5010157;28;103300;-75
2024/01/23 00:37:10;;;;;;;6.97;2.08;;;;;;;6.62;70.95;99202.38;4987411;28;103582;-75
2024/01/23 00:39:40;;;;;;;5.35;2.00;;;;;;;6.64;71.44;99199.63;4989846;28;103847;-76
2024/01/23 00:42:08;;;;;;;4.72;2.00;;;;;;;6.65;71.22;99201.28;4998516;28;104299;-75
2024/01/23 00:44:36;;;;;;;3.58;1.88;;;;;;;6.63;71.71;99208.50;5008662;28;103256;-74
2024/01/23 00:47:05;;;;;;;3.70;1.77;;;;;;;6.63;71.21;99203.25;5004475;28;103616;-75
2024/01/23 00:49:33;;;;;;;3.95;1.65;;;;;;;6.69;70.83;99201.88;4997086;28;102696;-75
2024/01/23 00:52:01;;;;;;;3.60;1.98;;;;;;;6.69;70.90;99205.31;5013802;28;102679;-74
2024/01/23 00:54:29;;;;;;;3.53;1.70;;;;;;;6.63;71.68;99197.97;5011812;28;103411;-75
2024/01/23 00:56:58;;;;;;;5.82;2.10;;;;;;;6.65;70.97;99214.44;5011455;28;103314;-76
2024/01/23 00:59:28;;;;;;;7.55;1.73;;;;;;;6.66;71.38;99215.31;5014461;28;102632;-76
2024/01/23 01:01:56;;;;;;;2.67;1.70;;;;;;;6.66;71.12;99216.13;4987236;28;104762;-75
2024/01/23 01:04:24;;;;;;;4.05;1.67;;;;;;;6.65;71.23;99201.28;5011524;28;103410;-74
2024/01/23 01:06:52;;;;;;;8.77;2.00;;;;;;;6.62;70.94;99204.19;4989561;28;103194;-75
2024/01/23 01:09:20;;;;;;;5.82;1.98;;;;;;;6.62;71.56;99206.81;4984788;28;102658;-75
2024/01/23 01:11:48;;;;;;;3.58;1.73;;;;;;;6.61;71.40;99216.50;5008850;28;102613;-75
2024/01/23 01:14:17;;;;;;;6.00;1.90;;;;;;;6.60;71.09;99214.84;4999121;28;104169;-75
2024/01/23 01:16:45;;;;;;;5.07;2.30;;;;;;;6.65;70.94;99222.34;5012351;28;103355;-75
2024/01/23 01:19:13;;;;;;;4.95;2.15;;;;;;;6.65;71.17;99230.25;5015140;28;102720;-75
2024/01/23 01:21:41;;;;;;;4.57;2.10;;;;;;;6.64;71.11;99247.00;5010689;28;103760;-75
2024/01/23 01:24:09;;;;;;;7.75;2.30;;;;;;;6.53;71.20;99242.63;5010511;28;104750;-75
2024/01/23 01:26:38;;;;;;;5.10;2.42;;;;;;;6.55;71.40;99242.50;5016481;28;103293;-75
2024/01/23 01:29:06;;;;;;;6.38;2.05;;;;;;;6.44;70.96;99240.78;4997380;28;102728;-75
2024/01/23 01:31:35;;;;;;;7.28;2.17;;;;;;;6.33;70.88;99244.31;5012281;28;104058;-75
2024/01/23 01:34:03;;;;;;;6.90;2.45;;;;;;;6.35;71.49;99258.16;4996680;28;104163;-74
2024/01/23 01:36:32;;;;;;;4.88;2.15;;;;;;;6.39;70.96;99251.72;4998060;28;104261;-75
2024/01/23 01:39:02;;;;;;;4.75;2.13;;;;;;;6.38;71.22;99260.56;5010064;28;102750;-75
2024/01/23 01:41:30;;;;;;;5.70;2.25;;;;;;;6.39;71.30;99267.50;5005457;28;102718;-74
2024/01/23 01:43:57;;;;;;;5.25;2.13;;;;;;;6.33;71.01;99281.16;4991165;28;104302;-75
2024/01/23 01:46:26;;;;;;;2.78;1.50;;;;;;;6.36;72.35;99296.66;5012951;28;103159;-75
2024/01/23 01:48:56;;;;;;;4.72;2.03;;;;;;;6.29;72.96;99296.34;4995240;28;102780;-75
2024/01/23 01:51:26;;;;;;;5.90;2.28;;;;;;;6.28;72.72;99278.06;5009679;28;102987;-75
2024/01/23 01:53:54;;;;;;;7.72;2.85;;;;;;;6.23;73.15;99274.97;5012705;27;104381;-75
2024/01/23 01:56:23;;;;;;;10.00;2.28;;;;;;;6.19;73.42;99284.09;5016314;28;103302;-75
2024/01/23 01:58:52;;;;;;;5.25;2.30;;;;;;;6.24;73.78;99276.66;4992043;28;102686;-76
2024/01/23 02:01:20;;;;;;;8.95;2.25;;;;;;;6.08;74.24;99272.63;4990949;28;102947;-75
2024/01/23 02:03:47;;;;;;;7.10;1.92;;;;;;;6.13;73.99;99281.00;4997248;28;104017;-74
2024/01/23 02:06:17;;;;;;;6.68;2.15;;;;;;;6.13;73.61;99282.78;5000730;28;103858;-75
2024/01/23 02:08:48;;;;;;;6.00;2.63;;;;;;;6.09;74.37;99284.84;4984457;28;103115;-75
2024/01/23 02:11:16;;;;;;;4.00;1.63;;;;;;;6.14;73.72;99285.28;4990490;28;103457;-75
2024/01/23 02:13:44;;;;;;;6.07;2.05;;;;;;;6.19;73.66;99281.44;5010289;28;103321;-76
2024/01/23 02:16:12;;;;;;;5.72;2.28;;;;;;;6.19;73.57;99289.34;5014406;28;103374;-75
2024/01/23 02:18:40;;;;;;;5.47;2.03;;;;;;;6.13;73.81;99296.78;5016720;28;103143;-75
2024/01/23 02:21:09;;;;;;;4.85;1.95;;;;;;;6.16;73.57;99300.09;4990662;28;104169;-75
2024/01/23 02:23:38;;;;;;;8.23;2.30;;;;;;;6.19;73.71;99302.50;4993929;28;104194;-75
2024/01/23 02:26:06;;;;;;;7.78;2.22;;;;;;;6.17;73.61;99301.78;4993789;28;103341;-74
2024/01/23 02:28:33;;;;;;;9.95;3.35;;;;;;;6.08;73.96;99306.00;4993827;28;102634;-75
2024/01/23 02:31:01;;;;;;;9.23;2.85;;;;;;;6.16;73.57;99305.34;5017930;28;103607;-75
2024/01/23 02:33:29;;;;;;;9.98;2.75;;;;;;;6.16;73.82;99305.34;4976329;28;103491;-75
2024/01/23 02:35:58;;;;;;;11.13;3.42;;;;;;;6.16;73.65;99307.97;4992650;28;103551;-75
2024/01/23 02:38:26;;;;;;;7.70;2.90;;;;;;;6.14;73.38;99308.97;5012239;27;102610;-75
2024/01/23 02:40:56;;;;;;;6.57;2.72;;;;;;;6.11;73.78;99309.19;4997275;28;102694;-75
2024/01/23 02:43:24;;;;;;;9.30;3.30;;;;;;;5.94;73.41;99304.44;5011394;28;103873;-75
2024/01/23 02:45:53;;;;;;;7.10;2.83;;;;;;;6.03;73.50;99305.53;5009221;28;102628;-76
2024/01/23 02:48:21;;;;;;;10.00;3.20;;;;;;;6.08;73.18;99301.56;5008733;28;102747;-75
2024/01/23 02:50:49;;;;;;;8.68;3.35;;;;;;;6.11;72.43;99298.69;5019242;28;103317;-75
2024/01/23 02:53:17;;;;;;;8.82;3.17;;;;;;;6.10;72.53;99301.44;4997333;28;103401;-76
2024/01/23 02:55:45;;;;;;;9.57;3.17;;;;;;;6.12;71.60;99299.53;4986943;28;104223;-75
2024/01/23 02:58:15;;;;;;;11.98;3.42;;;;;;;6.10;71.84;99302.25;4979543;28;103777;-75
2024/01/23 03:00:43;;;;;;;5.93;2.40;;;;;;;6.12;71.94;99310.88;4992597;28;102757;-74
2024/01/23 03:03:11;;;;;;;8.60;3.30;;;;;;;6.12;71.12;99318.75;5008820;28;103343;-76
2024/01/23 03:05:40;;;;;;;17.17;3.67;;;;;;;6.16;70.88;99313.25;5014373;28;103206;-75
2024/01/23 03:08:08;;;;;;;10.02;3.13;;;;;;;6.18;70.55;99313.97;4987149;28;103196;-75
2024/01/23 03:10:36;;;;;;;9.80;2.88;;;;;;;6.18;70.54;99311.34;4993718;28;102766;-75
2024/01/23 03:13:04;;;;;;;11.70;3.85;;;;;;;6.14;70.15;99306.34;4992464;28;104516;-75
2024/01/23 03:15:33;;;;;;;12.27;3.95;;;;;;;6.21;69.95;99311.06;4992176;28;103931;-75
2024/01/23 03:18:02;;;;;;;9.10;3.60;;;;;;;6.16;69.67;99311.47;5010792;28;103131;-75
2024/01/23 03:20:33;;;;;;;10.88;3.65;;;;;;;6.16;69.23;99310.63;4988694;28;104478;-75
2024/01/23 03:23:01;;;;;;;11.20;3.10;;;;;;;6.13;69.56;99302.03;4992629;28;104887;-75
2024/01/23 03:25:29;;;;;;;9.57;3.45;;;;;;;6.15;68.31;99309.78;5002313;28;103304;-75
2024/01/23 03:27:58;;;;;;;13.07;4.10;;;;;;;6.20;69.35;99314.69;5007485;28;102664;-75
2024/01/23 03:30:29;;;;;;;15.20;4.03;;;;;;;6.21;69.24;99324.22;4994127;28;103273;-75
2024/01/23 03:32:59;;;;;;;11.50;2.90;;;;;;;6.20;69.09;99317.31;4994894;28;104322;-75
2024/01/23 03:35:28;;;;;;;12.75;3.40;;;;;;;6.13;69.15;99323.06;4994199;28;104418;-75
2024/01/23 03:37:56;;;;;;;8.65;3.80;;;;;;;6.20;68.66;99333.09;5003673;28;102599;-75
2024/01/23 03:40:24;;;;;;;13.57;3.33;;;;;;;6.22;68.91;99336.44;4994545;28;103840;-74
2024/01/23 03:42:52;;;;;;;11.43;3.55;;;;;;;6.12;68.69;99337.19;5004897;28;103876;-75
2024/01/23 03:45:20;;;;;;;10.43;3.42;;;;;;;6.21;68.20;99340.00;5007834;28;102934;-74
2024/01/23 03:47:48;;;;;;;12.52;4.30;;;;;;;6.20;68.23;99347.06;4990043;27;102635;-75
2024/01/23 03:50:17;;;;;;;18.65;3.83;;;;;;;6.28;68.29;99351.72;4984259;28;102997;-74
2024/01/23 03:52:45;;;;;;;10.18;3.22;;;;;;;6.33;68.29;99361.84;4992077;28;103118;-75
2024/01/23 03:55:13;;;;;;;11.05;3.80;;;;;;;6.33;68.16;99357.44;5016387;28;103360;-75
2024/01/23 03:57:41;;;;;;;15.75;3.47;;;;;;;6.34;67.60;99351.22;5015681;28;102660;-75
2024/01/23 04:00:11;;;;;;;8.43;3.55;;;;;;;6.37;68.14;99356.22;5010819;28;102612;-75
2024/01/23 04:02:40;;;;;;;11.88;3.88;;;;;;;6.39;67.00;99343.81;4989886;28;105279;-73
2024/01/23 04:05:09;;;;;;;14.20;3.70;;;;;;;6.38;67.35;99343.91;5011740;28;103306;-74
2024/01/23 04:07:38;;;;;;;10.75;3.00;;;;;;;6.44;67.91;99352.13;4995715;28;102722;-74
2024/01/23 04:10:08;;;;;;;8.95;3.10;;;;;;;6.41;67.27;99362.91;5018543;28;102576;-74
2024/01/23 04:12:36;;;;;;;14.68;3.83;;;;;;;6.43;67.52;99363.63;4991064;28;104318;-74
2024/01/23 04:15:05;;;;;;;15.98;4.68;;;;;;;6.43;67.33;99358.38;4991312;28;103804;-74
2024/01/23 04:17:33;;;;;;;14.75;3.00;;;;;;;6.46;67.02;99360.75;4979182;28;102671;-74
2024/01/23 04:20:01;;;;;;;14.45;3.65;;;;;;;6.47;67.30;99361.56;5016746;28;103745;-74
2024/01/23 04:22:29;;;;;;;13.65;3.95;;;;;;;6.47;66.85;99346.63;4996206;28;103236;-74
2024/01/23 04:24:58;;;;;;;12.25;3.83;;;;;;;6.46;67.03;99342.31;4996184;28;103415;-74
2024/01/23 04:27:26;;;;;;;12.48;3.85;;;;;;;6.50;67.77;99339.44;5011350;28;102646;-74
2024/01/23 04:29:54;;;;;;;10.75;3.10;;;;;;;6.50;66.92;99344.69;5021011;28;102644;-74
2024/01/23 04:32:22;;;;;;;13.88;4.10;;;;;;;6.54;67.40;99356.66;5017415;28;103281;-74
2024/01/23 04:34:50;;;;;;;10.93;3.63;;;;;;;6.54;67.80;99377.72;4992590;28;103286;-76
2024/01/23 04:37:18;;;;;;;17.88;3.90;;;;;;;6.49;68.34;99379.88;5013120;28;102799;-74
2024/01/23 04:39:48;;;;;;;14.35;4.00;;;;;;;6.49;68.37;99396.50;5017233;28;102742;-74
2024/01/23 04:42:17;;;;;;;17.77;3.95;;;;;;;6.52;68.63;99398.88;5014754;28;103284;-74
2024/01/23 04:44:45;;;;;;;12.57;3.70;;;;;;;6.48;69.24;99397.44;4983943;28;103316;-74
2024/01/23 04:47:13;;;;;;;7.78;3.13;;;;;;;6.43;69.19;99392.59;5015706;28;102759;-74
2024/01/23 04:49:41;;;;;;;14.40;3.88;;;;;;;6.31;69.74;99393.56;5009818;27;102698;-74
2024/01/23 04:52:09;;;;;;;10.30;3.30;;;;;;;6.41;69.43;99394.50;4987131;28;104296;-74
2024/01/23 04:54:37;;;;;;;12.63;3.88;;;;;;;6.37;69.63;99398.34;5013298;28;103278;-74
2024/01/23 04:57:05;;;;;;;7.63;3.00;;;;;;;6.38;70.01;99402.66;5014465;28;102739;-75
2024/01/23 04:59:35;;;;;;;9.60;3.63;;;;;;;6.39;69.63;99395.56;5013198;27;103523;-74
2024/01/23 05:02:04;;;;;;;8.73;3.67;;;;;;;6.41;69.74;99406.81;4994910;28;104339;-74
2024/01/23 05:04:32;;;;;;;12.23;3.45;;;;;;;6.35;70.17;99394.97;4990154;28;104133;-74
2024/01/23 05:07:00;;;;;;;5.82;2.70;;;;;;;6.41;70.19;99414.72;5007814;28;102642;-75
2024/01/23 05:09:31;;;;;;;7.55;2.85;;;;;;;6.39;70.45;99424.50;4973925;28;102839;-74
2024/01/23 05:11:59;;;;;;;5.85;2.78;;;;;;;6.38;70.46;99428.94;5003613;28;104140;-74
2024/01/23 05:14:27;;;;;;;8.48;2.70;;;;;;;6.36;70.15;99438.75;4992610;28;103211;-75
2024/01/23 05:16:56;;;;;;;6.30;2.88;;;;;;;6.37;70.19;99450.97;5014203;28;102642;-75
2024/01/23 05:19:24;;;;;;;6.38;2.15;;;;;;;6.33;70.70;99465.31;5012567;28;103968;-74
2024/01/23 05:21:52;;;;;;;9.18;3.47;;;;;;;6.32;70.35;99462.81;5011232;28;103427;-75
2024/01/23 05:24:20;;;;;;;10.73;3.10;;;;;;;6.30;70.25;99476.91;5006307;28;103393;-74
2024/01/23 05:26:48;;;;;;;8.32;2.83;;;;;;;6.28;70.03;99484.09;4993285;28;102716;-75
2024/01/23 05:29:16;;;;;;;7.72;2.83;;;;;;;6.28;69.90;99493.78;5010243;28;103853;-75
2024/01/23 05:31:43;;;;;;;9.90;3.20;;;;;;;6.25;70.58;99501.91;5008290;28;103346;-74
2024/01/23 05:34:12;;;;;;;7.53;2.53;;;;;;;6.21;70.70;99503.09;5013410;28;103250;-78
2024/01/23 05:36:40;;;;;;;14.55;3.40;;;;;;;6.20;70.65;99518.06;4978408;28;102622;-74
2024/01/23 05:39:08;;;;;;;9.10;3.08;;;;;;;6.18;70.56;99519.97;5007632;28;103823;-73
2024/01/23 05:41:36;;;;;;;13.13;3.50;;;;;;;6.04;70.89;99523.69;5009877;28;104038;-73
2024/01/23 05:44:04;;;;;;;12.82;2.85;;;;;;;5.99;70.84;99517.94;5012754;28;103207;-74
2024/01/23 05:46:33;;;;;;;6.55;2.53;;;;;;;6.11;70.75;99530.13;5016251;28;102674;-74
2024/01/23 05:49:01;;;;;;;10.27;3.63;;;;;;;6.09;70.99;99531.19;4989294;28;102783;-75
2024/01/23 05:51:30;;;;;;;7.40;2.70;;;;;;;6.13;70.88;99538.75;5009579;28;104068;-74
2024/01/23 05:53:59;;;;;;;10.50;2.92;;;;;;;6.00;71.04;99539.81;5013055;28;103175;-75
2024/01/23 05:56:26;;;;;;;9.30;2.58;;;;;;;6.04;71.51;99560.50;5011970;28;102732;-75
2024/01/23 05:58:54;;;;;;;6.05;2.90;;;;;;;5.99;71.41;99567.91;5003514;28;103838;-74
2024/01/23 06:01:23;;;;;;;8.15;2.60;;;;;;;6.00;71.26;99561.69;4988102;28;104160;-74
2024/01/23 06:03:51;;;;;;;4.93;2.45;;;;;;;6.03;71.71;99571.13;4988342;28;104241;-73
2024/01/23 06:06:19;;;;;;;8.77;3.00;;;;;;;5.97;71.70;99580.28;4994452;28;103298;-74
2024/01/23 06:08:49;;;;;;;10.57;3.08;;;;;;;5.91;71.50;99581.59;5006529;28;102780;-74
2024/01/23 06:11:17;;;;;;;7.97;2.58;;;;;;;5.90;71.36;99589.59;5008158;28;103214;-74
2024/01/23 06:13:45;;;;;;;10.27;2.90;;;;;;;5.90;71.49;99600.13;5005386;28;103242;-75
2024/01/23 06:16:13;;;;;;;13.52;2.90;;;;;;;5.96;71.07;99604.91;4996975;28;102826;-75
2024/01/23 06:18:41;;;;;;;7.80;2.40;;;;;;;5.93;71.14;99605.13;4994403;28;103961;-75
2024/01/23 06:21:09;;;;;;;7.00;2.80;;;;;;;5.88;71.23;99616.03;5011440;28;103392;-74
2024/01/23 06:23:37;;;;;;;8.43;3.05;;;;;;;5.97;70.92;99617.97;4997391;28;104123;-74
2024/01/23 06:26:06;;;;;;;7.25;2.63;;;;;;;6.01;70.94;99633.53;5003225;28;102673;-74
2024/01/23 06:28:34;;;;;;;6.13;2.45;;;;;;;5.96;71.27;99639.09;4989106;28;102735;-74
2024/01/23 06:31:02;;;;;;;9.52;2.47;;;;;;;5.93;71.50;99648.03;5009723;28;103905;-74
2024/01/23 06:33:31;;;;;;;11.43;3.45;;;;;;;5.97;71.22;99648.66;4993089;28;104175;-74
2024/01/23 06:35:59;;;;;;;8.68;2.75;;;;;;;5.96;71.43;99668.00;4993315;28;102743;-75
2024/01/23 06:38:27;;;;;;;5.80;2.80;;;;;;;6.05;71.35;99672.63;4991297;28;104319;-74
2024/01/23 06:40:55;;;;;;;7.90;2.65;;;;;;;5.95;71.83;99671.63;5014006;28;104302;-75
2024/01/23 06:43:24;;;;;;;9.73;2.80;;;;;;;5.92;71.94;99679.72;5014769;28;103312;-75
2024/01/23 06:45:52;;;;;;;10.05;3.10;;;;;;;5.85;72.32;99691.66;5012331;28;102678;-74
2024/01/23 06:48:20;;;;;;;8.80;2.45;;;;;;;5.79;72.04;99682.41;5019367;28;103600;-74
2024/01/23 06:50:48;;;;;;;10.15;3.03;;;;;;;5.81;71.76;99694.50;5014743;28;103280;-74
2024/01/23 06:53:16;;;;;;;4.93;2.20;;;;;;;5.68;72.22;99706.03;4981536;28;103286;-74
2024/01/23 06:55:46;;;;;;;8.10;2.65;;;;;;;5.72;71.88;99718.81;5009985;28;102641;-74
2024/01/23 06:58:14;;;;;;;7.15;2.50;;;;;;;5.60;72.42;99720.56;5010735;28;104095;-74
2024/01/23 07:00:45;;;;;;;10.13;3.47;;;;;;;5.71;71.57;99718.94;5010197;28;103277;-75
2024/01/23 07:03:13;;;;;;;5.95;2.22;;;;;;;5.65;72.70;99728.94;4981457;28;104393;-74
2024/01/23 07:05:45;;;;;;;5.72;2.30;;;;;;;5.53;72.41;99729.00;4993232;28;102614;-76
2024/01/23 07:08:13;;;;;;;6.88;2.80;;;;;;;5.54;72.52;99735.94;5007026;28;103642;-76
2024/01/23 07:10:41;;;;;;;8.10;2.88;;;;;;;5.45;72.72;99746.16;4993155;28;102834;-75
2024/01/23 07:13:09;;;;;;;5.75;2.13;;;;;;;5.50;72.22;99745.00;4981860;28;104694;-76
2024/01/23 07:15:37;;;;;;;6.38;2.53;;;;;;;5.45;72.05;99747.94;5004024;27;102700;-77
2024/01/23 07:18:06;;;;;;;10.98;2.75;;;;;;;5.38;71.83;99755.41;4967928;28;102771;-76
2024/01/23 07:20:34;;;;;;;7.00;2.60;;;;;;;5.36;71.62;99759.09;4976429;28;104211;-76
2024/01/23 07:23:02;;;;;;;5.95;2.38;;;;;;;5.41;71.13;99763.09;4985869;28;104467;-76
2024/01/23 07:25:30;;;;;;;8.25;3.13;;;;;;;5.34;70.69;99764.47;5005018;28;102769;-77
2024/01/23 07:27:58;;;;;;;8.82;2.72;;;;;;;5.34;70.10;99769.72;4991356;28;102861;-76
2024/01/23 07:30:26;;;;;;;11.02;2.83;;;;;;;5.44;70.00;99767.28;5010402;28;104050;-76
2024/01/23 07:32:54;;;;;;;9.48;2.70;;;;;;;5.41;69.49;99765.72;5015748;28;103315;-76
2024/01/23 07:35:23;;;;;;;8.93;2.90;;;;;;;5.54;69.60;99778.84;5015745;28;102654;-76
2024/01/23 07:37:51;;;;;;;5.63;1.95;;;;;;;5.59;69.04;99765.34;4991770;28;102823;-76
2024/01/23 07:40:19;;;;;;;12.48;3.08;;;;;;;5.60;68.84;99775.75;5007562;28;103498;-76
2024/01/23 07:42:47;;;;;;;5.32;1.90;;;;;;;5.73;68.92;99762.56;5006247;28;104571;-76
2024/01/23 07:45:15;;;;;;;6.93;3.17;;;;;;;5.76;68.75;99783.38;4977661;28;102998;-77
2024/01/23 07:47:43;;;;;;;12.30;3.13;;;;;;;5.78;67.54;99791.16;5012801;28;102755;-76
2024/01/23 07:50:12;;;;;;;6.15;2.75;;;;;;;5.77;67.95;99795.56;5011394;28;103204;-75
2024/01/23 07:52:41;;;;;;;8.38;2.92;;;;;;;5.88;67.69;99805.34;5006084;28;103201;-75
2024/01/23 07:55:09;;;;;;;6.28;2.10;;;;;;;5.96;67.69;99812.63;5008354;28;102654;-75
2024/01/23 07:57:37;;;;;;;10.05;3.00;;;;;;;5.92;67.30;99814.69;5012725;28;104715;-77
2024/01/23 08:00:08;;;;;;;6.68;2.63;;;;;;;5.87;68.07;99816.78;5008217;28;104319;-75
2024/01/23 08:02:35;;;;;;;6.75;2.70;;;;;;;5.86;67.95;99824.78;4992227;28;103230;-77
2024/01/23 08:05:04;;;;;;;9.10;3.35;;;;;;;5.86;67.94;99824.78;5005170;28;102769;-75
2024/01/23 08:07:33;;;;;;;9.32;3.35;;;;;;;5.71;68.78;99827.56;4990467;28;102887;-75
2024/01/23 08:10:02;;;;;;;8.55;2.78;;;;;;;5.74;68.83;99837.84;4976984;28;102742;-75
2024/01/23 08:12:30;;;;;;;10.02;3.13;;;;;;;5.69;69.10;99826.81;4988438;28;103402;-75
2024/01/23 08:14:58;;;;;;;12.90;4.18;;;;;;;5.65;69.17;99828.00;4999914;28;102703;-75
2024/01/23 08:17:27;;;;;;;6.07;2.45;;;;;;;5.64;69.61;99842.09;4988814;28;104153;-76
2024/01/23 08:19:55;;;;;;;6.75;2.45;;;;;;;5.73;69.45;99846.69;5014250;28;104446;-76
2024/01/23 08:22:24;;;;;;;12.88;3.80;;;;;;;5.75;68.71;99860.56;5016872;28;103176;-76
2024/01/23 08:25:05;;;;;;;10.43;3.15;;;;;;;5.81;69.00;99851.41;5012580;28;103069;-75
2024/01/23 08:27:34;;;;;;;7.78;2.53;;;;;;;5.82;68.72;99856.53;5006176;28;104288;-75
2024/01/23 08:30:03;;;;;;;9.05;3.22;;;;;;;5.73;68.99;99854.56;4996356;28;103382;-76
2024/01/23 08:32:30;;;;;;;8.60;3.58;;;;;;;5.89;68.58;99856.13;5009511;28;103211;-76
2024/01/23 08:34:58;;;;;;;4.75;1.90;;;;;;;6.14;68.29;99856.06;4984678;28;102827;-76
2024/01/23 08:37:26;;;;;;;6.90;2.50;;;;;;;6.46;67.09;99854.69;5009885;28;102793;-77
2024/01/23 08:39:54;;;;;;;7.30;2.80;;;;;;;6.36;67.83;99848.41;4990199;28;103509;-76
2024/01/23 08:42:24;;;;;;;8.43;3.42;;;;;;;6.71;66.59;99845.78;5008481;28;103232;-76
2024/01/23 08:44:55;;;;;;;10.77;2.92;;;;;;;6.86;66.22;99851.69;4988283;28;103113;-76
2024/01/23 08:47:23;;;;;;;10.00;3.25;;;;;;;7.00;66.10;99861.19;4992895;28;103456;-75
2024/01/23 08:49:51;;;;;;;9.90;2.92;;;;;;;6.84;66.41;99855.38;5014525;28;103329;-76
2024/01/23 08:52:19;;;;;;;9.80;3.17;;;;;;;6.80;67.03;99857.44;5014065;28;103265;-76
2024/01/23 08:54:47;;;;;;;20.98;3.97;;;;;;;6.79;67.12;99856.56;4991144;28;102804;-76
2024/01/23 08:57:17;;;;;;;13.20;3.13;;;;;;;6.72;67.13;99865.91;5006760;28;102982;-75
2024/01/23 08:59:46;;;;;;;10.15;2.72;;;;;;;6.77;67.52;99876.94;5001142;28;103196;-75
2024/01/23 09:02:15;;;;;;;8.00;3.22;;;;;;;6.70;67.30;99877.50;5008007;28;103266;-74
2024/01/23 09:04:43;;;;;;;10.18;3.28;;;;;;;6.59;67.40;99887.03;4989206;28;103187;-75
2024/01/23 09:07:13;;;;;;;10.18;3.60;;;;;;;6.56;67.67;99889.88;5004420;28;104215;-76
2024/01/23 09:09:42;;;;;;;7.43;2.63;;;;;;;6.93;67.54;99884.50;5011133;28;103030;-75
2024/01/23 09:12:10;;;;;;;5.90;2.35;;;;;;;7.31;65.83;99893.09;5007980;28;103218;-75
2024/01/23 09:14:38;;;;;;;6.35;2.85;;;;;;;7.52;64.61;99890.59;4996828;28;102723;-75
2024/01/23 09:17:07;;;;;;;10.45;2.88;;;;;;;7.40;65.53;99897.66;4992458;28;102648;-76
2024/01/23 09:19:36;;;;;;;10.48;3.25;;;;;;;7.26;65.71;99903.16;5003436;28;103324;-75
2024/01/23 09:22:07;;;;;;;5.22;2.53;;;;;;;7.25;65.80;99906.72;5004915;28;103229;-75
2024/01/23 09:24:35;;;;;;;10.70;2.92;;;;;;;7.28;65.67;99909.97;4998671;28;102722;-76
2024/01/23 09:27:04;;;;;;;7.00;2.10;;;;;;;7.26;65.42;99917.16;4992161;28;104146;-76
2024/01/23 09:29:32;;;;;;;4.88;2.33;;;;;;;7.29;65.85;99919.53;5005818;28;104447;-75
2024/01/23 09:32:03;;;;;;;12.43;3.03;;;;;;;7.10;66.38;99928.03;5007177;28;103199;-75
2024/01/23 09:34:31;;;;;;;6.80;2.65;;;;;;;7.03;66.51;99934.69;5012768;28;102640;-75
2024/01/23 09:37:00;;;;;;;5.90;2.45;;;;;;;6.99;66.84;99946.41;5010683;28;102564;-74
2024/01/23 09:39:28;;;;;;;7.25;2.40;;;;;;;6.97;67.25;99948.34;5007149;28;104009;-75
2024/01/23 09:42:01;;;;;;;4.80;1.90;;;;;;;7.08;66.92;99958.91;5006936;28;103211;-75
2024/01/23 09:44:29;;;;;;;3.17;1.52;;;;;;;7.22;67.16;99957.88;4991516;28;102836;-75
2024/01/23 09:46:58;;;;;;;3.95;2.00;;;;;;;7.09;66.90;99955.31;5001854;27;104491;-75
2024/01/23 09:49:27;;;;;;;6.32;1.98;;;;;;;7.01;67.02;99964.72;5000483;28;103252;-75
2024/01/23 09:52:01;;;;;;;4.95;2.10;;;;;;;7.04;67.31;99967.16;5008577;28;103183;-75
2024/01/23 09:54:31;;;;;;;7.50;2.08;;;;;;;6.99;66.95;99972.75;5008258;28;103093;-76
2024/01/23 09:57:01;;;;;;;5.30;1.98;;;;;;;7.09;66.96;99967.66;5006369;28;104262;-76
2024/01/23 09:59:29;;;;;;;6.45;2.28;;;;;;;7.10;66.55;99974.59;5007974;28;103284;-76
2024/01/23 10:01:57;;;;;;;6.00;2.00;;;;;;;7.32;66.25;99973.81;4992856;28;104442;-75
2024/01/23 10:04:26;;;;;;;6.95;2.30;;;;;;;7.27;66.09;99965.41;4990243;28;102738;-75
2024/01/23 10:06:54;;;;;;;5.18;2.08;;;;;;;7.70;65.57;99970.06;4983961;28;104394;-75
2024/01/23 10:09:22;;;;;;;8.73;2.05;;;;;;;7.68;65.26;99961.44;5008708;28;103929;-75
2024/01/23 10:11:51;;;;;;;3.33;1.70;;;;;;;7.88;64.05;99964.31;5012720;28;103257;-75
2024/01/23 10:14:19;;;;;;;6.47;2.22;;;;;;;8.18;64.30;99955.78;5002913;28;103025;-76
2024/01/23 10:16:48;;;;;;;6.65;2.30;;;;;;;8.18;63.74;99950.50;4983781;28;103762;-74
2024/01/23 10:19:17;;;;;;;7.80;2.72;;;;;;;8.48;63.48;99956.97;4991571;28;103368;-76
2024/01/23 10:21:46;;;;;;;5.18;1.70;;;;;;;8.40;64.07;99962.00;5013776;28;102931;-75
2024/01/23 10:24:14;;;;;;;8.35;2.00;;;;;;;8.33;63.06;99960.81;4988002;28;103225;-76
2024/01/23 10:26:46;;;;;;;5.95;2.38;;;;;;;8.31;63.77;99968.84;4993570;28;102781;-75
2024/01/23 10:29:15;;;;;;;8.15;2.20;;;;;;;8.14;63.63;99973.66;4985182;28;105050;-75
2024/01/23 10:31:43;;;;;;;5.13;2.03;;;;;;;8.26;63.66;99973.66;5003460;28;103217;-75
2024/01/23 10:34:12;;;;;;;4.63;2.42;;;;;;;8.24;63.73;99965.00;5005461;28;102626;-73
2024/01/23 10:36:42;;;;;;;6.25;2.30;;;;;;;8.28;63.52;99962.03;5001448;28;104464;-75
2024/01/23 10:39:11;;;;;;;6.28;2.42;;;;;;;8.01;63.86;99970.31;5004839;28;103239;-76
2024/01/23 10:41:41;;;;;;;4.72;2.08;;;;;;;7.96;63.19;99957.50;5008631;28;103265;-77
2024/01/23 10:44:12;;;;;;;6.90;2.63;;;;;;;7.92;64.00;99958.66;4981718;28;102880;-75
2024/01/23 10:46:42;;;;;;;6.53;2.30;;;;;;;8.00;63.75;99963.34;4988546;28;103862;-76
2024/01/23 10:49:10;;;;;;;6.90;2.28;;;;;;;8.07;64.37;99948.72;5008199;28;103286;-75
2024/01/23 10:51:39;;;;;;;4.43;2.15;;;;;;;8.06;63.80;99951.50;4995927;28;103346;-75
2024/01/23 10:54:09;;;;;;;7.55;2.65;;;;;;;8.01;63.54;99962.41;5005629;28;102647;-75
2024/01/23 10:56:44;;;;;;;9.57;2.55;;;;;;;8.16;63.70;99967.44;5006789;28;102689;-76
2024/01/23 10:59:17;;;;;;;7.53;2.70;;;;;;;8.02;61.91;99963.22;4987678;28;103190;-75
2024/01/23 11:01:56;;;;;;;11.25;2.95;;;;;;;7.80;61.29;99954.38;5001445;28;103553;-73
2024/01/23 11:04:24;;;;;;;10.60;3.20;;;;;;;7.84;60.97;99957.63;4984807;28;102725;-75
2024/01/23 11:06:58;;;;;;;5.40;2.60;;;;;;;7.78;61.29;99948.34;4999058;28;103836;-74
2024/01/23 11:09:30;;;;;;;8.90;3.30;;;;;;;7.64;60.63;99942.38;4996662;28;103786;-74
2024/01/23 11:12:05;;;;;;;7.72;3.33;;;;;;;7.87;60.38;99955.56;5007191;28;103214;-76
2024/01/23 11:14:42;;;;;;;14.68;3.63;;;;;;;7.98;59.61;99952.09;4987392;28;102718;-83
2024/01/23 11:17:13;;;;;;;10.55;3.55;;;;;;;7.99;59.38;99948.50;4984412;28;104354;-75
2024/01/23 11:19:42;;;;;;;9.90;3.60;;;;;;;8.31;59.13;99945.09;5005360;28;103383;-72
2024/01/23 11:22:10;;;;;;;15.35;3.22;;;;;;;8.62;58.22;99942.66;4979876;28;104178;-75
2024/01/23 11:24:39;;;;;;;10.38;3.05;;;;;;;8.87;57.96;99951.19;5008048;28;102769;-76
2024/01/23 11:27:08;;;;;;;12.30;3.78;;;;;;;8.68;56.93;99947.44;5002392;28;104460;-74
2024/01/23 11:29:36;;;;;;;8.38;3.00;;;;;;;8.96;55.91;99939.84;5003583;28;103928;-74
2024/01/23 11:32:19;;;;;;;9.45;3.53;;;;;;;8.96;55.53;99934.56;4982853;28;104250;-75
2024/01/23 11:34:47;;;;;;;10.15;3.28;;;;;;;9.26;54.80;99957.63;4989988;28;102773;-75
2024/01/23 11:37:48;;;;;;;10.13;3.33;;;;;;;9.39;53.51;99944.22;4998760;28;104170;-74
2024/01/23 11:40:37;;;;;;;10.75;3.33;;;;;;;9.55;52.83;99948.19;4999149;28;103244;-74